Earlville, Illinois
Current Conditions -  °F | °C
As of 4:15 AM on Sunday 23 Nov 2014 (Local Time) from KVYS Reporting Station
Overcast Overcast  
Wind Chill: 44°   Ceiling: 4600
Heat Index: 49°   Visibility: 10mi
Dew Point: 46°   Wind: 12mph
Humidity: 89%   Direction: 180°S
Pressure: 29.76"   Gusts: NA
Location:  41.59°N, 88.92°W
Report Text: KVYS 231015Z AUTO 18010KT 10SM SCT033 OVC046 09/08 A2976 RMK AO2 T00920075
Loading
Personal Weather Stations






























Interactive Weather Map New forecast layout! Learn more

10-Day Weather Forecast

Advertisements
Track Severe Weather on mobile